Time;durP1;ratioP1;P1;durP2;ratioP2;P2;SDS_P1;SDS_P2;PMS_P1;PMS_P2;Temp;Humidity;BMP_temperature;BMP_pressure;BME280_temperature;BME280_humidity;BME280_pressure;Samples;Min_cycle;Max_cycle;Signal;HPM_P1;HPM_P2
2022/06/12 00:00:34;;;;;;;12.73;8.50;;;19.20;66.40;;;;;;5074241;28;20055;-13
2022/06/12 00:03:02;;;;;;;14.05;8.70;;;19.20;66.50;;;;;;5074561;28;20028;-12
2022/06/12 00:05:32;;;;;;;16.60;11.32;;;19.20;66.80;;;;;;5074773;28;20035;-12
2022/06/12 00:07:58;;;;;;;11.75;8.10;;;19.20;67.10;;;;;;5073844;28;20027;-13
2022/06/12 00:10:24;;;;;;;14.63;9.15;;;19.10;66.80;;;;;;5073972;28;20020;-13
2022/06/12 00:12:51;;;;;;;17.77;11.70;;;19.10;66.80;;;;;;5072577;28;20062;-12
2022/06/12 00:15:20;;;;;;;13.15;9.02;;;19.00;67.00;;;;;;5073763;28;20515;-12
2022/06/12 00:17:48;;;;;;;15.50;10.23;;;19.10;67.20;;;;;;5074015;28;20035;-13
2022/06/12 00:20:17;;;;;;;12.18;9.75;;;19.10;67.20;;;;;;5073561;28;20025;-12
2022/06/12 00:22:44;;;;;;;12.75;8.65;;;19.00;67.30;;;;;;5074184;28;20020;-12
2022/06/12 00:25:14;;;;;;;13.35;7.70;;;19.00;67.50;;;;;;5073636;28;20496;-14
2022/06/12 00:27:41;;;;;;;16.02;11.25;;;19.10;67.60;;;;;;5073723;28;20075;-13
2022/06/12 00:30:11;;;;;;;19.02;9.85;;;19.00;67.50;;;;;;5072710;28;20032;-12
2022/06/12 00:32:38;;;;;;;13.10;8.68;;;19.00;67.70;;;;;;5073237;28;20039;-13
2022/06/12 00:35:07;;;;;;;13.07;9.20;;;18.90;68.30;;;;;;5073425;28;20024;-12
2022/06/12 00:37:35;;;;;;;13.82;9.75;;;19.00;68.10;;;;;;5073743;28;20036;-12
2022/06/12 00:40:03;;;;;;;11.52;8.90;;;19.00;68.10;;;;;;5073671;28;20028;-12
2022/06/12 00:42:40;;;;;;;14.23;9.82;;;18.90;68.60;;;;;;5073428;28;20103;-12
2022/06/12 00:45:54;;;;;;;11.30;7.90;;;18.90;68.90;;;;;;5073756;28;20574;-12
2022/06/12 00:48:26;;;;;;;14.02;9.10;;;18.90;69.10;;;;;;5051237;28;20468;-15
2022/06/12 00:50:57;;;;;;;10.13;7.75;;;18.90;68.60;;;;;;5051024;28;20508;-12
2022/06/12 00:53:31;;;;;;;9.63;7.05;;;18.90;68.80;;;;;;5051026;28;20033;-11
2022/06/12 00:56:03;;;;;;;9.30;6.75;;;18.90;68.50;;;;;;5051188;28;20028;-11
2022/06/12 00:58:33;;;;;;;11.38;8.10;;;18.80;68.50;;;;;;5051089;28;20064;-12
2022/06/12 01:01:03;;;;;;;12.80;9.70;;;18.80;68.80;;;;;;5051118;28;20477;-12
2022/06/12 01:03:29;;;;;;;11.70;8.30;;;18.70;69.30;;;;;;5050968;28;20033;-12
2022/06/12 01:08:40;;;;;;;9.52;7.47;;;18.60;69.40;;;;;;5051238;28;20036;-11
2022/06/12 01:11:11;;;;;;;10.50;7.30;;;18.50;69.60;;;;;;5051346;28;20032;-12
2022/06/12 01:13:41;;;;;;;10.43;7.88;;;18.50;69.50;;;;;;5051606;28;20068;-12
2022/06/12 01:16:13;;;;;;;10.45;7.93;;;18.50;69.80;;;;;;5050937;28;20025;-12
2022/06/12 01:18:45;;;;;;;12.07;8.65;;;18.50;69.80;;;;;;5034177;28;20420;-13
2022/06/12 01:21:24;;;;;;;10.00;6.93;;;18.40;69.90;;;;;;5050820;28;20021;-12
2022/06/12 01:24:09;;;;;;;11.43;8.15;;;18.40;70.10;;;;;;5064531;28;20045;-12
2022/06/12 01:27:06;;;;;;;9.02;7.10;;;18.30;70.60;;;;;;5072658;28;20119;-13
2022/06/12 01:30:07;;;;;;;11.98;8.43;;;18.20;70.40;;;;;;5073081;28;20456;-13
2022/06/12 01:32:55;;;;;;;10.80;7.60;;;18.20;71.10;;;;;;5072454;28;20032;-11
2022/06/12 01:35:35;;;;;;;10.02;7.72;;;18.10;70.80;;;;;;5073197;28;20024;-11
2022/06/12 01:38:21;;;;;;;13.75;8.70;;;18.00;71.00;;;;;;5073057;28;20087;-12
2022/06/12 01:41:02;;;;;;;10.77;7.90;;;17.90;71.50;;;;;;5074587;28;20081;-11
2022/06/12 01:43:37;;;;;;;9.73;6.50;;;17.90;71.30;;;;;;5077094;28;20039;-12
2022/06/12 01:46:29;;;;;;;10.68;7.60;;;17.90;71.50;;;;;;5076716;28;20052;-13
2022/06/12 01:49:13;;;;;;;14.38;10.25;;;17.80;71.40;;;;;;5074926;28;20117;-12
2022/06/12 01:52:21;;;;;;;13.93;10.82;;;17.80;72.30;;;;;;5076491;28;20051;-13
2022/06/12 01:55:01;;;;;;;14.95;9.55;;;17.70;72.70;;;;;;5076860;28;20050;-12
2022/06/12 01:57:57;;;;;;;14.07;9.10;;;17.60;72.60;;;;;;5077115;28;20020;-13
2022/06/12 02:00:25;;;;;;;11.55;8.50;;;17.50;72.70;;;;;;5076209;28;20559;-13
2022/06/12 02:03:02;;;;;;;14.30;11.07;;;17.50;72.90;;;;;;5076285;28;20032;-12
2022/06/12 02:05:40;;;;;;;17.23;12.32;;;17.60;73.20;;;;;;5076260;28;20067;-13
2022/06/12 02:08:13;;;;;;;11.40;8.40;;;17.50;73.40;;;;;;5076265;28;20033;-13
2022/06/12 02:10:56;;;;;;;11.88;8.95;;;17.50;73.40;;;;;;5076019;28;20476;-12
2022/06/12 02:13:30;;;;;;;13.55;10.10;;;17.50;73.60;;;;;;5076482;28;20094;-13
2022/06/12 02:16:04;;;;;;;14.25;10.25;;;17.50;73.60;;;;;;5077023;28;20020;-13
2022/06/12 02:18:51;;;;;;;14.32;10.27;;;17.50;73.70;;;;;;5076097;28;20072;-12
2022/06/12 02:21:32;;;;;;;14.70;9.68;;;17.40;74.00;;;;;;5076358;28;20036;-12
2022/06/12 02:24:19;;;;;;;11.93;8.13;;;17.40;74.30;;;;;;5075972;28;20056;-13
2022/06/12 02:27:06;;;;;;;12.00;8.27;;;17.40;74.40;;;;;;5076002;28;20120;-13
2022/06/12 02:29:43;;;;;;;11.52;8.80;;;17.40;74.50;;;;;;5076171;28;20028;-13
2022/06/12 02:32:31;;;;;;;13.43;10.95;;;17.40;74.30;;;;;;5076373;28;20028;-13
2022/06/12 02:35:04;;;;;;;11.95;8.00;;;17.40;74.50;;;;;;5075780;28;20522;-13
2022/06/12 02:37:42;;;;;;;11.00;7.88;;;17.30;74.20;;;;;;5075864;28;20025;-12
2022/06/12 02:40:18;;;;;;;11.80;8.85;;;17.30;74.20;;;;;;5076885;28;20103;-13
2022/06/12 02:42:46;;;;;;;12.40;8.98;;;17.30;74.50;;;;;;5075610;28;20024;-13
2022/06/12 02:45:20;;;;;;;13.38;8.93;;;17.30;74.70;;;;;;5075636;28;20025;-12
2022/06/12 02:47:47;;;;;;;;;;;17.20;74.50;;;;;;5076208;28;20021;-13
2022/06/12 02:50:16;;;;;;;11.73;8.43;;;17.20;75.20;;;;;;5075197;28;19920;-12
2022/06/12 02:53:18;;;;;;;18.20;11.40;;;17.20;74.70;;;;;;5075580;28;20029;-13
2022/06/12 02:55:48;;;;;;;13.52;8.25;;;17.20;74.70;;;;;;5076229;28;20029;-12
2022/06/12 02:58:20;;;;;;;13.20;8.57;;;17.10;74.70;;;;;;5075322;28;20484;-12
2022/06/12 03:00:54;;;;;;;15.23;11.45;;;17.10;74.70;;;;;;5075363;28;20052;-12
2022/06/12 03:03:47;;;;;;;13.57;9.38;;;17.00;75.10;;;;;;5075439;28;20029;-12
2022/06/12 03:06:14;;;;;;;14.20;11.25;;;17.00;75.20;;;;;;5075555;28;20016;-13
2022/06/12 03:08:47;;;;;;;20.92;14.32;;;16.90;75.30;;;;;;5075480;28;20032;-13
2022/06/12 03:11:23;;;;;;;12.75;9.35;;;16.90;75.60;;;;;;5075866;28;20102;-12
2022/06/12 03:13:51;;;;;;;15.20;11.38;;;16.90;75.70;;;;;;5075390;28;20078;-13
2022/06/12 03:16:27;;;;;;;17.02;11.50;;;16.90;75.60;;;;;;5074932;28;20492;-13
2022/06/12 03:19:09;;;;;;;14.93;10.07;;;16.90;75.80;;;;;;5074902;28;20108;-13
2022/06/12 03:22:06;;;;;;;14.00;9.73;;;16.80;76.10;;;;;;5075261;28;20070;-13
2022/06/12 03:24:49;;;;;;;11.65;7.82;;;16.80;76.20;;;;;;5073723;28;20025;-12
2022/06/12 03:27:40;;;;;;;16.27;10.93;;;16.80;76.00;;;;;;5075211;28;20036;-13
2022/06/12 03:30:17;;;;;;;11.82;8.63;;;16.80;76.50;;;;;;5075017;28;20028;-12
2022/06/12 03:32:51;;;;;;;15.55;11.65;;;16.80;76.10;;;;;;5074682;28;20037;-12
2022/06/12 03:35:48;;;;;;;15.32;10.13;;;16.80;76.10;;;;;;5074568;28;20496;-12
2022/06/12 03:38:24;;;;;;;13.05;9.43;;;16.80;76.20;;;;;;5074402;28;20523;-12
2022/06/12 03:41:07;;;;;;;13.85;9.73;;;16.70;76.00;;;;;;5074566;28;20020;-13
2022/06/12 03:43:58;;;;;;;19.00;12.43;;;16.70;76.10;;;;;;5074920;28;20075;-13
2022/06/12 03:46:46;;;;;;;14.95;10.68;;;16.80;76.60;;;;;;5074314;28;20029;-12
2022/06/12 03:49:31;;;;;;;20.10;13.00;;;16.70;76.50;;;;;;5074387;28;20024;-13
2022/06/12 03:52:12;;;;;;;16.35;10.77;;;16.70;76.50;;;;;;5074154;28;20040;-11
2022/06/12 03:55:04;;;;;;;12.65;9.50;;;16.80;76.20;;;;;;5074109;28;20027;-12
2022/06/12 03:57:51;;;;;;;16.42;11.38;;;16.80;76.30;;;;;;5074809;28;20024;-14
2022/06/12 04:00:41;;;;;;;22.70;13.05;;;16.80;76.40;;;;;;5074629;28;20099;-13
2022/06/12 04:03:18;;;;;;;13.63;8.98;;;16.90;77.10;;;;;;5073799;28;20021;-13
2022/06/12 04:05:57;;;;;;;14.35;9.45;;;16.90;76.40;;;;;;5074142;28;20033;-13
2022/06/12 04:08:37;;;;;;;13.30;10.10;;;16.90;76.20;;;;;;5074400;28;20042;-12
2022/06/12 04:11:07;;;;;;;19.42;14.15;;;16.90;76.10;;;;;;5074257;28;20039;-12
2022/06/12 04:13:35;;;;;;;15.82;11.88;;;17.00;76.70;;;;;;5073828;28;20039;-13
2022/06/12 04:16:26;;;;;;;17.38;10.35;;;17.00;76.80;;;;;;5074134;28;20028;-12
2022/06/12 04:18:53;;;;;;;20.77;15.27;;;17.00;76.80;;;;;;5073979;28;20040;-13
2022/06/12 04:21:25;;;;;;;19.85;13.45;;;17.10;77.50;;;;;;5074081;28;20028;-12
2022/06/12 04:24:09;;;;;;;17.10;12.63;;;17.20;77.30;;;;;;5073605;28;20025;-12
2022/06/12 04:26:47;;;;;;;18.10;12.68;;;17.30;76.90;;;;;;5073409;28;20032;-13
2022/06/12 04:29:13;;;;;;;16.48;11.52;;;17.40;76.40;;;;;;5073849;28;20101;-13
2022/06/12 04:31:43;;;;;;;17.08;12.13;;;17.40;76.30;;;;;;5073480;28;20072;-13
2022/06/12 04:34:24;;;;;;;15.90;10.95;;;17.50;76.20;;;;;;5073760;28;20048;-12
2022/06/12 04:36:53;;;;;;;15.73;11.05;;;17.60;75.90;;;;;;5073533;28;20365;-12
2022/06/12 04:39:23;;;;;;;15.73;10.63;;;17.70;76.00;;;;;;5073441;28;20195;-13
2022/06/12 04:41:50;;;;;;;13.80;10.13;;;17.80;75.90;;;;;;5073722;28;20028;-11
2022/06/12 04:44:17;;;;;;;14.27;10.80;;;17.90;75.60;;;;;;5073182;28;20021;-12
2022/06/12 04:46:46;;;;;;;12.02;8.80;;;18.00;75.50;;;;;;5073647;28;20028;-12
2022/06/12 04:49:20;;;;;;;12.20;9.48;;;18.10;75.30;;;;;;5073235;28;20021;-13
2022/06/12 04:51:46;;;;;;;13.07;9.27;;;18.20;75.00;;;;;;5073189;28;20029;-12
2022/06/12 04:54:12;;;;;;;13.68;9.07;;;18.30;74.80;;;;;;5073203;28;20078;-12
2022/06/12 04:56:38;;;;;;;14.77;11.15;;;18.40;74.70;;;;;;5073092;28;20032;-12
2022/06/12 04:59:06;;;;;;;12.27;9.40;;;18.50;74.90;;;;;;5073447;28;20493;-12
2022/06/12 05:01:35;;;;;;;13.30;10.52;;;18.60;74.30;;;;;;5073497;28;20035;-12
2022/06/12 05:04:02;;;;;;;15.57;10.20;;;18.80;74.10;;;;;;5073574;28;20372;-12
2022/06/12 05:06:29;;;;;;;10.25;8.23;;;18.90;73.70;;;;;;5072816;28;20025;-14
2022/06/12 05:08:55;;;;;;;13.13;8.77;;;19.00;73.40;;;;;;5073398;28;20484;-12
2022/06/12 05:11:22;;;;;;;14.02;9.40;;;19.20;73.10;;;;;;5072969;28;20036;-12
2022/06/12 05:13:48;;;;;;;15.25;8.93;;;19.30;72.90;;;;;;5073635;28;20059;-12
2022/06/12 05:16:26;;;;;;;13.85;8.98;;;19.40;73.20;;;;;;5072290;28;20028;-13
2022/06/12 05:18:52;;;;;;;11.27;9.20;;;19.50;72.70;;;;;;5072946;28;20032;-12
2022/06/12 05:21:19;;;;;;;11.77;8.75;;;19.70;72.50;;;;;;5073565;28;20020;-13
2022/06/12 05:23:45;;;;;;;11.32;8.45;;;19.80;72.20;;;;;;5073560;28;20099;-13
2022/06/12 05:26:15;;;;;;;12.32;7.72;;;19.90;72.20;;;;;;5072954;28;20451;-12
2022/06/12 05:28:42;;;;;;;10.20;8.38;;;20.00;71.70;;;;;;5072940;28;20030;-12
2022/06/12 05:31:08;;;;;;;12.80;9.52;;;20.20;71.40;;;;;;5073187;28;20496;-12
2022/06/12 05:33:34;;;;;;;10.73;7.53;;;20.40;71.60;;;;;;5072615;28;20028;-12
2022/06/12 05:36:00;;;;;;;14.23;10.00;;;20.50;70.90;;;;;;5073167;28;20060;-12
2022/06/12 05:38:26;;;;;;;12.30;9.07;;;20.60;70.90;;;;;;5072640;28;20025;-12
2022/06/12 05:40:52;;;;;;;11.88;8.88;;;20.70;70.70;;;;;;5073282;28;20051;-12
2022/06/12 05:43:18;;;;;;;10.75;8.80;;;20.80;70.50;;;;;;5071541;28;20124;-13
2022/06/12 05:45:44;;;;;;;10.73;6.97;;;20.90;70.20;;;;;;5072752;28;20017;-13
2022/06/12 05:48:14;;;;;;;9.77;6.90;;;21.00;69.80;;;;;;5072602;28;20032;-12
2022/06/12 05:50:48;;;;;;;8.65;6.68;;;21.20;69.50;;;;;;5072495;28;20053;-13
2022/06/12 05:53:14;;;;;;;10.02;7.13;;;21.40;69.20;;;;;;5072579;28;20032;-12
2022/06/12 05:55:41;;;;;;;13.63;7.55;;;21.40;68.90;;;;;;5073031;28;20028;-12
2022/06/12 05:58:07;;;;;;;11.68;8.75;;;21.50;68.80;;;;;;5072884;28;20060;-13
2022/06/12 06:00:33;;;;;;;9.32;6.88;;;21.70;68.70;;;;;;5072443;28;20392;-12
2022/06/12 06:03:00;;;;;;;8.82;5.80;;;21.90;68.20;;;;;;5072849;28;20028;-13
2022/06/12 06:05:27;;;;;;;10.25;7.38;;;21.90;67.90;;;;;;5072798;28;20029;-13
2022/06/12 06:07:53;;;;;;;9.88;7.25;;;22.10;67.40;;;;;;5072843;28;20086;-12
2022/06/12 06:10:24;;;;;;;8.73;6.60;;;22.30;67.00;;;;;;5072610;28;20029;-13
2022/06/12 06:12:50;;;;;;;8.27;6.50;;;22.40;66.50;;;;;;5071219;28;20036;-13
2022/06/12 06:15:16;;;;;;;11.88;7.90;;;22.50;66.10;;;;;;5072763;28;20028;-10
2022/06/12 06:17:42;;;;;;;8.70;6.95;;;22.60;65.80;;;;;;5072719;28;20029;-11
2022/06/12 06:20:12;;;;;;;9.00;6.63;;;22.70;66.10;;;;;;5072487;28;20158;-10
2022/06/12 06:22:37;;;;;;;12.40;7.40;;;22.90;65.50;;;;;;5072259;28;20020;-10
2022/06/12 06:25:04;;;;;;;10.27;7.90;;;23.10;65.40;;;;;;5072748;28;20023;-10
2022/06/12 06:27:30;;;;;;;10.07;6.93;;;23.30;64.40;;;;;;5073573;28;20077;-13
2022/06/12 06:29:56;;;;;;;11.05;7.25;;;23.40;64.10;;;;;;5075891;28;20032;-11
2022/06/12 06:32:22;;;;;;;10.80;7.78;;;23.60;63.70;;;;;;5075670;28;20036;-12
2022/06/12 06:34:48;;;;;;;11.73;8.00;;;23.80;62.40;;;;;;5075913;28;20024;-12
2022/06/12 06:37:15;;;;;;;11.50;8.80;;;23.90;61.40;;;;;;5076070;28;20040;-12
2022/06/12 06:39:42;;;;;;;10.65;7.80;;;24.10;62.00;;;;;;5076004;28;20028;-12
2022/06/12 06:42:10;;;;;;;8.80;7.32;;;24.20;61.50;;;;;;5075866;28;20020;-13
2022/06/12 06:47:21;;;;;;;15.60;8.60;;;24.50;59.80;;;;;;5075694;28;20031;-12
2022/06/12 06:49:48;;;;;;;10.20;7.07;;;24.70;60.40;;;;;;5075190;28;20091;-11
2022/06/12 06:52:14;;;;;;;9.23;6.25;;;24.80;60.00;;;;;;5075275;28;20028;-12
2022/06/12 06:54:40;;;;;;;8.70;6.07;;;24.90;59.70;;;;;;5075421;28;20420;-12
2022/06/12 06:57:08;;;;;;;7.07;5.40;;;25.10;59.20;;;;;;5075670;28;20028;-12
2022/06/12 06:59:35;;;;;;;9.48;6.80;;;25.30;58.70;;;;;;5075351;28;20024;-12
2022/06/12 07:02:01;;;;;;;9.32;6.45;;;25.40;58.70;;;;;;5075653;28;20396;-11
2022/06/12 07:04:27;;;;;;;9.00;6.30;;;25.50;58.50;;;;;;5075038;28;20094;-11
2022/06/12 07:06:53;;;;;;;10.77;7.10;;;25.70;57.60;;;;;;5075192;28;20033;-12
2022/06/12 07:09:19;;;;;;;10.55;7.00;;;25.90;57.10;;;;;;5076030;28;20027;-12
2022/06/12 07:11:45;;;;;;;10.30;7.68;;;26.00;56.50;;;;;;5075589;28;20055;-11
2022/06/12 07:14:11;;;;;;;12.60;8.05;;;26.20;55.70;;;;;;5075033;28;20029;-11
2022/06/12 07:16:38;;;;;;;14.80;9.23;;;26.40;54.80;;;;;;5073910;28;20415;-11
2022/06/12 07:19:06;;;;;;;10.82;8.32;;;26.60;54.40;;;;;;5074887;28;20085;-12
2022/06/12 07:21:32;;;;;;;12.98;6.57;;;26.80;54.20;;;;;;5074994;28;20060;-11
2022/06/12 07:23:58;;;;;;;8.52;6.43;;;26.90;53.60;;;;;;5075177;28;20028;-11
2022/06/12 07:26:33;;;;;;;8.57;7.03;;;27.10;53.70;;;;;;5073798;28;20029;-11
2022/06/12 07:29:00;;;;;;;10.65;7.63;;;27.30;52.30;;;;;;5075391;28;20404;-12
2022/06/12 07:31:27;;;;;;;9.38;7.80;;;27.40;52.10;;;;;;5074955;28;20025;-12
2022/06/12 07:33:53;;;;;;;11.23;7.43;;;27.70;50.30;;;;;;5074583;28;20020;-12
2022/06/12 07:36:21;;;;;;;11.45;7.25;;;27.80;50.10;;;;;;5074342;28;20131;-13
2022/06/12 07:38:49;;;;;;;8.63;6.45;;;27.90;49.90;;;;;;5074766;28;20042;-13
2022/06/12 07:41:16;;;;;;;8.50;6.50;;;28.20;50.20;;;;;;5074535;28;20540;-11
2022/06/12 07:43:44;;;;;;;9.30;7.00;;;28.40;49.80;;;;;;5074419;28;20025;-11
2022/06/12 07:46:12;;;;;;;8.57;6.97;;;28.70;49.30;;;;;;5074787;28;20024;-11
2022/06/12 07:48:40;;;;;;;8.75;6.65;;;28.90;48.70;;;;;;5074785;28;20036;-11
2022/06/12 07:51:10;;;;;;;8.82;6.28;;;29.00;47.10;;;;;;5074474;28;20067;-12
2022/06/12 07:53:38;;;;;;;10.85;8.35;;;29.30;47.10;;;;;;5074575;28;20035;-11
2022/06/12 07:56:05;;;;;;;8.40;6.25;;;29.40;45.60;;;;;;5074335;28;20024;-12
2022/06/12 07:58:32;;;;;;;10.40;7.78;;;29.50;46.50;;;;;;5074271;28;20052;-12
2022/06/12 08:01:01;;;;;;;11.15;7.03;;;29.60;45.00;;;;;;5074361;28;20119;-11
2022/06/12 08:03:29;;;;;;;9.57;7.00;;;29.80;44.60;;;;;;5074239;28;20062;-11
2022/06/12 08:05:56;;;;;;;6.57;5.30;;;29.90;44.80;;;;;;5074028;28;20033;-11
2022/06/12 08:08:22;;;;;;;6.97;5.15;;;29.90;45.50;;;;;;5073774;28;20154;-12
2022/06/12 08:10:48;;;;;;;6.65;5.03;;;30.00;44.40;;;;;;5074519;28;20062;-11
2022/06/12 08:13:14;;;;;;;8.75;5.20;;;30.30;43.40;;;;;;5073834;28;20024;-11
2022/06/12 08:15:46;;;;;;;7.75;5.93;;;30.60;42.40;;;;;;5073862;28;20024;-11
2022/06/12 08:18:14;;;;;;;9.25;5.80;;;30.80;42.10;;;;;;5073865;28;20028;-12
2022/06/12 08:20:45;;;;;;;7.88;4.90;;;30.90;42.10;;;;;;5073602;28;20025;-11
2022/06/12 08:23:36;;;;;;;7.72;5.13;;;30.90;42.30;;;;;;5074058;28;20116;-11
2022/06/12 08:26:22;;;;;;;7.50;4.63;;;30.90;42.90;;;;;;5073739;28;20448;-12
2022/06/12 08:28:53;;;;;;;5.35;4.55;;;31.20;42.30;;;;;;5073667;28;20036;-11
2022/06/12 08:31:26;;;;;;;7.63;5.70;;;31.60;39.70;;;;;;5073910;28;20051;-12
2022/06/12 08:33:57;;;;;;;8.75;5.30;;;31.90;39.60;;;;;;5073476;28;20435;-12
2022/06/12 08:36:24;;;;;;;7.13;5.47;;;32.10;39.00;;;;;;5073617;28;20032;-12
2022/06/12 08:38:51;;;;;;;9.90;6.53;;;32.30;38.60;;;;;;5073850;28;20118;-13
2022/06/12 08:41:34;;;;;;;7.43;5.07;;;32.40;38.80;;;;;;5073715;28;20086;-12
2022/06/12 08:44:28;;;;;;;6.72;4.25;;;32.40;39.20;;;;;;5072213;28;20446;-12
2022/06/12 08:47:22;;;;;;;10.80;6.25;;;32.50;39.30;;;;;;5073324;28;20035;-12
2022/06/12 08:50:23;;;;;;;5.18;4.20;;;32.70;39.30;;;;;;5072291;28;20091;-12
2022/06/12 08:53:13;;;;;;;5.70;4.00;;;32.90;38.80;;;;;;5073595;28;20066;-12
2022/06/12 08:55:55;;;;;;;5.63;4.38;;;33.10;37.70;;;;;;5073434;28;20024;-11
2022/06/12 08:58:39;;;;;;;5.82;4.25;;;33.40;37.60;;;;;;5073135;28;20383;-12
2022/06/12 09:01:06;;;;;;;4.35;3.75;;;33.60;37.90;;;;;;5073227;28;20016;-12
2022/06/12 09:03:38;;;;;;;8.93;3.60;;;33.90;38.10;;;;;;5073060;28;20028;-12
2022/06/12 09:06:58;;;;;;;5.07;4.18;;;34.10;37.30;;;;;;5073206;28;20484;-11
2022/06/12 09:09:58;;;;;;;6.20;4.80;;;34.50;36.00;;;;;;5051133;28;20051;-12
2022/06/12 09:12:44;;;;;;;5.50;3.60;;;34.70;35.60;;;;;;5050764;28;20517;-12
2022/06/12 09:15:38;;;;;;;3.50;3.10;;;34.70;35.30;;;;;;5050959;28;20401;-12
2022/06/12 09:18:10;;;;;;;3.50;3.20;;;34.80;35.70;;;;;;5051156;28;20465;-12
2022/06/12 09:20:50;;;;;;;4.07;3.30;;;34.90;35.50;;;;;;5050542;28;20437;-12
2022/06/12 09:23:51;;;;;;;3.45;3.15;;;35.20;34.90;;;;;;5051576;28;20037;-12
2022/06/12 09:26:36;;;;;;;4.53;3.38;;;35.40;33.00;;;;;;4991939;28;20071;-12
2022/06/12 09:29:26;;;;;;;3.63;3.10;;;35.70;32.30;;;;;;5047201;28;20044;-12
2022/06/12 09:32:06;;;;;;;4.60;3.50;;;36.00;32.10;;;;;;5050757;28;20041;-12
2022/06/12 09:34:59;;;;;;;4.30;3.45;;;36.20;31.50;;;;;;5050451;28;20033;-12
2022/06/12 09:40:40;;;;;;;6.30;3.75;;;36.40;31.50;;;;;;5051156;28;19912;-12
2022/06/12 09:43:18;;;;;;;4.25;3.80;;;35.90;31.90;;;;;;5062189;28;20060;-12
2022/06/12 09:46:07;;;;;;;6.28;3.47;;;35.50;32.40;;;;;;5072629;28;20031;-12
2022/06/12 09:48:57;;;;;;;4.85;3.55;;;35.60;31.10;;;;;;5072483;28;20051;-12
2022/06/12 09:51:32;;;;;;;5.10;3.83;;;35.90;30.70;;;;;;5072649;28;20087;-12
2022/06/12 09:54:06;;;;;;;4.15;3.50;;;36.10;31.20;;;;;;5072866;28;20033;-12
2022/06/12 09:56:48;;;;;;;5.45;3.10;;;36.30;31.20;;;;;;5072494;28;20052;-12
2022/06/12 09:59:23;;;;;;;5.00;3.20;;;36.50;31.30;;;;;;5072878;28;20025;-12
2022/06/12 10:01:55;;;;;;;3.47;3.00;;;36.90;31.40;;;;;;5074721;28;20028;-12
2022/06/12 10:04:38;;;;;;;4.20;3.17;;;37.10;30.70;;;;;;5076220;28;20541;-12
2022/06/12 10:07:11;;;;;;;;;;;37.40;29.70;;;;;;5076813;28;20100;-11
2022/06/12 10:10:19;;;;;;;4.43;3.60;;;37.40;29.60;;;;;;5076295;28;20359;-12
2022/06/12 10:12:49;;;;;;;4.50;3.70;;;37.30;28.60;;;;;;5075897;28;20036;-12
2022/06/12 10:15:41;;;;;;;4.03;3.15;;;37.10;29.50;;;;;;5076192;28;20024;-13
2022/06/12 10:18:20;;;;;;;3.78;3.20;;;37.00;30.70;;;;;;5076507;28;20472;-11
2022/06/12 10:20:52;;;;;;;5.07;3.50;;;37.00;30.80;;;;;;5076359;28;20028;-12
2022/06/12 10:23:19;;;;;;;5.47;3.58;;;37.20;30.30;;;;;;5076075;28;20064;-12
2022/06/12 10:25:55;;;;;;;4.10;3.63;;;37.40;29.30;;;;;;5076289;28;20073;-11
2022/06/12 10:28:32;;;;;;;3.85;3.50;;;36.90;29.40;;;;;;5076636;28;20017;-11
2022/06/12 10:30:58;;;;;;;3.42;3.13;;;36.50;30.30;;;;;;5076511;28;20070;-12
2022/06/12 10:33:33;;;;;;;4.72;3.42;;;36.20;30.80;;;;;;5076380;28;20071;-12
2022/06/12 10:36:02;;;;;;;3.97;3.08;;;36.10;30.40;;;;;;5075852;28;20020;-12
2022/06/12 10:38:33;;;;;;;3.50;2.80;;;35.90;30.90;;;;;;5075552;28;20029;-11
2022/06/12 10:41:02;;;;;;;4.13;3.10;;;35.90;31.30;;;;;;5074513;28;20046;-12
2022/06/12 10:43:49;;;;;;;6.55;3.30;;;36.40;30.40;;;;;;5075683;28;20109;-12
2022/06/12 10:46:18;;;;;;;5.70;3.20;;;36.90;29.40;;;;;;5076356;28;20025;-11
2022/06/12 10:49:03;;;;;;;4.05;3.38;;;37.40;29.30;;;;;;5075771;28;20029;-12
2022/06/12 10:51:36;;;;;;;4.55;3.30;;;37.50;29.30;;;;;;5075487;28;20040;-11
2022/06/12 10:54:23;;;;;;;4.15;3.40;;;37.40;29.20;;;;;;5075561;28;20040;-11
2022/06/12 10:56:58;;;;;;;4.93;3.08;;;36.90;29.50;;;;;;5075659;28;20024;-12
2022/06/12 10:59:36;;;;;;;4.80;3.00;;;36.90;30.20;;;;;;5075794;28;20051;-12
2022/06/12 11:02:12;;;;;;;3.28;2.95;;;37.00;30.00;;;;;;5075661;28;20111;-12
2022/06/12 11:04:47;;;;;;;4.00;3.60;;;37.30;30.00;;;;;;5075028;28;20032;-12
2022/06/12 11:07:24;;;;;;;4.47;3.58;;;37.50;29.20;;;;;;5073966;28;20098;-12
2022/06/12 11:10:18;;;;;;;3.70;3.30;;;37.40;28.60;;;;;;5075212;28;20377;-12
2022/06/12 11:13:13;;;;;;;3.83;3.20;;;36.90;29.50;;;;;;5074207;28;20477;-11
2022/06/12 11:16:09;;;;;;;3.67;2.97;;;36.90;30.00;;;;;;5075377;28;20025;-12
2022/06/12 11:18:56;;;;;;;5.13;3.28;;;37.00;29.70;;;;;;5075078;28;20028;-12
2022/06/12 11:21:25;;;;;;;5.40;3.15;;;37.10;28.80;;;;;;5075860;28;20059;-12
2022/06/12 11:23:57;;;;;;;3.38;2.45;;;37.20;30.20;;;;;;5075336;28;20025;-12
2022/06/12 11:26:38;;;;;;;3.40;2.90;;;37.30;30.10;;;;;;5073459;28;20116;-12
2022/06/12 11:29:22;;;;;;;5.93;2.90;;;37.90;29.30;;;;;;5074805;28;20040;-13
2022/06/12 11:31:58;;;;;;;4.50;3.42;;;38.10;29.20;;;;;;5074957;28;20500;-12
2022/06/12 11:34:39;;;;;;;3.97;3.00;;;38.20;29.40;;;;;;5074403;28;20037;-12
2022/06/12 11:37:17;;;;;;;4.72;3.50;;;38.10;29.50;;;;;;5074936;28;20040;-11
2022/06/12 11:39:48;;;;;;;3.50;2.80;;;38.00;29.70;;;;;;5074579;28;20025;-11
2022/06/12 11:42:40;;;;;;;4.85;2.65;;;37.80;29.90;;;;;;5074354;28;20076;-13
2022/06/12 11:45:48;;;;;;;4.45;3.05;;;37.90;30.10;;;;;;5074529;28;20481;-12
2022/06/12 11:48:29;;;;;;;3.20;2.90;;;38.50;29.60;;;;;;5052205;28;20039;-13
2022/06/12 11:51:21;;;;;;;4.65;2.90;;;39.20;28.50;;;;;;5035529;28;20195;-12
2022/06/12 11:54:02;;;;;;;4.03;2.95;;;39.60;27.80;;;;;;5052309;28;20033;-12
2022/06/12 11:56:52;;;;;;;3.17;2.80;;;39.50;27.50;;;;;;5052243;28;20029;-11
2022/06/12 11:59:37;;;;;;;4.28;3.30;;;39.30;27.00;;;;;;5052268;28;20036;-12
2022/06/12 12:02:25;;;;;;;4.70;3.28;;;39.20;27.70;;;;;;5052196;28;20037;-12
2022/06/12 12:04:56;;;;;;;3.28;2.97;;;39.40;27.70;;;;;;5052047;28;20064;-11
2022/06/12 12:07:31;;;;;;;4.03;3.10;;;39.70;27.20;;;;;;5052667;28;20035;-12
2022/06/12 12:10:08;;;;;;;4.38;2.90;;;40.20;26.70;;;;;;5052044;28;20033;-12
2022/06/12 12:12:40;;;;;;;3.13;2.72;;;40.60;27.40;;;;;;5051760;28;20043;-12
2022/06/12 12:15:11;;;;;;;;;;;41.10;26.80;;;;;;5052433;28;20116;-11
2022/06/12 12:17:43;;;;;;;3.20;2.63;;;41.70;26.80;;;;;;5051808;28;20276;-13
2022/06/12 12:20:20;;;;;;;3.47;2.95;;;42.00;25.50;;;;;;5051732;28;20116;-12
2022/06/12 12:23:05;;;;;;;4.28;2.90;;;42.10;25.60;;;;;;5069180;28;20047;-12
2022/06/12 12:25:56;;;;;;;4.40;3.42;;;42.20;25.70;;;;;;5072452;28;20549;-11
2022/06/12 12:28:46;;;;;;;2.95;2.67;;;42.20;25.30;;;;;;5073536;28;20032;-12
2022/06/12 12:31:15;;;;;;;3.97;3.00;;;41.60;26.30;;;;;;5074261;28;20016;-12
2022/06/12 12:33:44;;;;;;;4.78;3.10;;;41.70;26.30;;;;;;5073378;28;20502;-11
2022/06/12 12:41:54;;;;;;;5.20;3.33;;;41.40;26.80;;;;;;5074076;28;20032;-12
2022/06/12 12:44:34;;;;;;;3.28;2.97;;;41.00;26.90;;;;;;5073609;28;20028;-12
2022/06/12 12:47:01;;;;;;;4.18;2.97;;;40.60;27.10;;;;;;5073618;28;20028;-13
2022/06/12 12:49:32;;;;;;;3.97;3.15;;;40.70;26.40;;;;;;5073173;28;20067;-11
2022/06/12 12:52:04;;;;;;;3.55;2.83;;;41.00;26.10;;;;;;5073605;28;20044;-12
2022/06/12 12:54:40;;;;;;;;;;;41.20;26.30;;;;;;5073474;28;20061;-13
2022/06/12 12:57:08;;;;;;;4.13;3.05;;;41.40;26.20;;;;;;5073569;28;19920;-13
2022/06/12 12:59:52;;;;;;;3.30;3.00;;;41.60;26.00;;;;;;5073501;28;20112;-12
2022/06/12 13:02:35;;;;;;;3.03;2.50;;;41.90;25.40;;;;;;5074104;28;20040;-12
2022/06/12 13:05:21;;;;;;;3.58;2.83;;;42.20;25.10;;;;;;5073116;28;20415;-12
2022/06/12 13:08:13;;;;;;;3.50;2.60;;;42.40;24.30;;;;;;5073450;28;20021;-12
2022/06/12 13:11:15;;;;;;;3.30;3.00;;;42.30;25.10;;;;;;5073591;28;20028;-12
2022/06/12 13:14:03;;;;;;;3.22;2.92;;;42.10;25.40;;;;;;5073057;28;20085;-13
2022/06/12 13:17:06;;;;;;;4.43;2.88;;;42.30;24.60;;;;;;5072939;28;20106;-12
2022/06/12 13:19:42;;;;;;;3.83;2.70;;;42.30;25.10;;;;;;5072874;28;20032;-11
2022/06/12 13:22:34;;;;;;;5.70;3.08;;;42.30;24.10;;;;;;5073038;28;20488;-13
2022/06/12 13:25:14;;;;;;;;;;;41.90;24.50;;;;;;5073763;28;20396;-13
2022/06/12 13:27:51;;;;;;;4.00;2.58;;;41.00;24.90;;;;;;5073268;28;19904;-12
2022/06/12 13:30:19;;;;;;;4.28;2.97;;;40.30;25.60;;;;;;5073133;28;20024;-13
2022/06/12 13:32:45;;;;;;;3.65;3.10;;;39.80;26.50;;;;;;5073154;28;20035;-12
2022/06/12 13:35:30;;;;;;;3.45;2.80;;;39.40;26.50;;;;;;5073072;28;20099;-12
2022/06/12 13:38:04;;;;;;;3.78;2.92;;;39.10;26.60;;;;;;5076584;28;20027;-12